Time;durP1;ratioP1;P1;durP2;ratioP2;P2;SDS_P1;SDS_P2;PMS_P1;PMS_P2;Temp;Humidity;BMP_temperature;BMP_pressure;BME280_temperature;BME280_humidity;BME280_pressure;Samples;Min_cycle;Max_cycle;Signal;HPM_P1;HPM_P2
2023/01/19 00:01:25;;;;;;;20.52;12.40;;;-4.80;91.40;;;;;;5017455;28;20434;-67
2023/01/19 00:03:51;;;;;;;22.30;12.23;;;-4.70;91.40;;;;;;5017246;28;20040;-67
2023/01/19 00:06:17;;;;;;;21.83;11.63;;;-4.70;91.50;;;;;;5017407;28;20109;-67
2023/01/19 00:08:48;;;;;;;24.00;12.85;;;-4.60;90.10;;;;;;5017652;28;20037;-68
2023/01/19 00:11:14;;;;;;;22.13;12.85;;;-4.50;91.60;;;;;;5015199;28;20129;-67
2023/01/19 00:13:39;;;;;;;21.77;11.48;;;-4.50;92.10;;;;;;5017460;28;20065;-67
2023/01/19 00:16:06;;;;;;;19.20;11.45;;;-4.60;91.70;;;;;;5000059;28;20025;-67
2023/01/19 00:18:32;;;;;;;19.80;12.00;;;-4.40;91.10;;;;;;5017403;28;20030;-67
2023/01/19 00:20:57;;;;;;;18.88;11.70;;;-4.50;91.70;;;;;;5014618;28;20062;-67
2023/01/19 00:23:24;;;;;;;20.05;10.93;;;-4.40;91.20;;;;;;5017371;28;20037;-66
2023/01/19 00:25:50;;;;;;;19.13;11.18;;;-4.30;91.20;;;;;;5017534;28;20365;-66
2023/01/19 00:28:17;;;;;;;22.33;12.00;;;-4.20;91.30;;;;;;5017217;28;20026;-67
2023/01/19 00:30:43;;;;;;;18.10;10.27;;;-4.20;92.60;;;;;;5015569;28;20104;-66
2023/01/19 00:33:12;;;;;;;18.02;11.10;;;-4.20;92.00;;;;;;5017164;28;20033;-69
2023/01/19 00:35:38;;;;;;;17.45;9.65;;;-4.20;92.70;;;;;;5016370;28;20156;-68
2023/01/19 00:38:03;;;;;;;18.88;11.32;;;-4.20;92.70;;;;;;5016819;28;20443;-69
2023/01/19 00:40:29;;;;;;;20.55;11.13;;;-4.10;93.00;;;;;;5015544;28;20033;-67
2023/01/19 00:42:54;;;;;;;18.95;10.75;;;-4.10;94.80;;;;;;5016954;28;20371;-68
2023/01/19 00:45:22;;;;;;;17.52;10.70;;;-4.10;94.10;;;;;;5017159;28;20057;-67
2023/01/19 00:47:53;;;;;;;19.05;10.88;;;-4.00;93.40;;;;;;5016994;28;20022;-67
2023/01/19 00:50:19;;;;;;;17.35;10.63;;;-4.00;94.90;;;;;;5013286;28;20022;-67
2023/01/19 00:52:45;;;;;;;20.48;10.43;;;-4.10;95.20;;;;;;4997497;28;20038;-67
2023/01/19 00:55:13;;;;;;;22.25;11.90;;;-4.10;94.80;;;;;;5016958;28;20433;-67
2023/01/19 00:57:39;;;;;;;21.60;11.23;;;-4.10;95.20;;;;;;5016959;28;20355;-67
2023/01/19 01:00:10;;;;;;;18.35;11.77;;;-4.20;95.10;;;;;;5015950;28;20056;-67
2023/01/19 01:02:36;;;;;;;22.13;11.95;;;-4.10;94.50;;;;;;5016014;28;20044;-66
2023/01/19 01:05:02;;;;;;;22.52;12.68;;;-4.20;94.80;;;;;;5016661;28;20026;-67
2023/01/19 01:07:29;;;;;;;19.63;11.13;;;-4.20;94.00;;;;;;5015331;28;20036;-67
2023/01/19 01:09:58;;;;;;;17.00;10.35;;;-4.20;93.80;;;;;;5016586;28;20026;-67
2023/01/19 01:12:23;;;;;;;18.25;10.40;;;-4.20;93.50;;;;;;5014866;28;20141;-67
2023/01/19 01:14:52;;;;;;;18.98;11.13;;;-4.10;93.90;;;;;;5016622;28;20058;-67
2023/01/19 01:17:23;;;;;;;18.70;11.13;;;-4.10;93.80;;;;;;5016607;28;20030;-67
2023/01/19 01:19:49;;;;;;;19.45;10.27;;;-4.20;94.20;;;;;;5016392;28;20026;-67
2023/01/19 01:22:15;;;;;;;19.70;11.02;;;-4.30;93.90;;;;;;5002690;28;20096;-66
2023/01/19 01:24:40;;;;;;;18.77;9.75;;;-4.50;95.70;;;;;;5006355;28;20042;-66
2023/01/19 01:27:06;;;;;;;19.73;10.70;;;-4.70;94.20;;;;;;5016301;28;20045;-66
2023/01/19 01:29:34;;;;;;;19.40;11.35;;;-4.70;94.40;;;;;;4998953;28;20330;-67
2023/01/19 01:32:00;;;;;;;20.67;12.18;;;-4.70;93.10;;;;;;4997626;28;20029;-67
2023/01/19 01:34:26;;;;;;;19.23;10.75;;;-4.80;94.20;;;;;;5016321;28;20030;-67
2023/01/19 01:36:51;;;;;;;20.63;9.90;;;-4.90;93.50;;;;;;5015037;28;20036;-67
2023/01/19 01:39:17;;;;;;;19.13;10.30;;;-4.80;92.10;;;;;;5016089;28;20072;-67
2023/01/19 01:41:42;;;;;;;20.52;10.18;;;-4.60;92.70;;;;;;5015031;28;20033;-67
2023/01/19 01:44:48;;;;;;;19.33;10.88;;;-4.60;93.00;;;;;;5016116;28;20108;-67
2023/01/19 01:47:27;;;;;;;19.17;9.95;;;-4.60;93.50;;;;;;5016064;28;20335;-67
2023/01/19 01:50:05;;;;;;;21.00;10.90;;;-4.50;93.40;;;;;;5015905;28;20033;-67
2023/01/19 01:52:33;;;;;;;22.23;10.63;;;-4.50;93.60;;;;;;5014285;28;20119;-67
2023/01/19 01:54:59;;;;;;;20.50;9.90;;;-4.50;94.10;;;;;;4998634;28;20412;-67
2023/01/19 01:57:26;;;;;;;17.60;9.18;;;-4.50;93.50;;;;;;5016092;28;20280;-67
2023/01/19 01:59:53;;;;;;;17.50;9.52;;;-4.30;94.00;;;;;;5013571;28;20108;-67
2023/01/19 02:05:11;;;;;;;18.00;10.38;;;-4.30;96.10;;;;;;5017577;28;20087;-67
2023/01/19 02:13:20;;;;;;;17.67;9.60;;;-4.60;98.00;;;;;;5021239;28;20168;-67
2023/01/19 02:16:06;;;;;;;20.50;10.70;;;-4.70;97.50;;;;;;5029040;28;20355;-68
2023/01/19 02:18:32;;;;;;;18.83;10.63;;;-4.70;96.70;;;;;;5031916;28;20283;-67
2023/01/19 02:21:18;;;;;;;18.45;11.02;;;-4.70;96.10;;;;;;5017457;28;20712;-67
2023/01/19 02:23:48;;;;;;;21.35;11.30;;;-5.00;96.40;;;;;;5008657;28;20026;-67
2023/01/19 02:26:23;;;;;;;18.83;11.20;;;-5.00;96.10;;;;;;5000715;28;20065;-67
2023/01/19 02:28:53;;;;;;;20.02;10.95;;;-5.00;95.70;;;;;;5018126;28;20030;-67
2023/01/19 02:31:19;;;;;;;21.25;11.30;;;-5.10;95.80;;;;;;5017998;28;20030;-67
2023/01/19 02:33:45;;;;;;;18.48;11.43;;;-5.30;96.20;;;;;;5017629;28;20377;-67
2023/01/19 02:36:14;;;;;;;20.23;12.05;;;-5.30;95.50;;;;;;5016479;28;20056;-67
2023/01/19 02:38:42;;;;;;;16.88;10.85;;;-5.40;95.20;;;;;;5018647;28;20018;-67
2023/01/19 02:41:12;;;;;;;19.48;10.32;;;-5.50;95.70;;;;;;5016242;28;20018;-67
2023/01/19 02:43:39;;;;;;;17.02;10.23;;;-5.80;97.30;;;;;;5017610;28;20458;-67
2023/01/19 02:46:04;;;;;;;23.58;12.75;;;-6.00;95.50;;;;;;4996387;28;20034;-67
2023/01/19 02:48:30;;;;;;;18.00;9.23;;;-5.90;93.90;;;;;;5001264;28;20040;-67
2023/01/19 02:51:03;;;;;;;19.48;11.00;;;-6.00;94.10;;;;;;5015784;28;20029;-67
2023/01/19 02:53:50;;;;;;;22.75;11.68;;;-6.00;93.60;;;;;;5018363;28;20034;-67
2023/01/19 02:56:43;;;;;;;20.67;11.50;;;-5.80;91.50;;;;;;5018419;28;20030;-67
2023/01/19 02:59:22;;;;;;;17.17;9.57;;;-5.70;90.40;;;;;;5000600;28;20101;-67
2023/01/19 03:01:59;;;;;;;21.88;10.65;;;-5.80;92.90;;;;;;5014818;28;20045;-67
2023/01/19 03:04:41;;;;;;;20.33;9.98;;;-5.80;92.20;;;;;;5018229;28;20389;-67
2023/01/19 03:07:15;;;;;;;19.80;10.32;;;-5.80;92.20;;;;;;5000144;28;20040;-67
2023/01/19 03:10:02;;;;;;;18.60;10.98;;;-5.90;91.60;;;;;;5017963;28;20109;-67
2023/01/19 03:12:54;;;;;;;22.88;12.18;;;-5.90;91.20;;;;;;5015805;28;20041;-67
2023/01/19 03:15:28;;;;;;;19.33;11.25;;;-5.80;90.80;;;;;;5014630;28;20037;-66
2023/01/19 03:17:56;;;;;;;21.65;10.40;;;-5.60;89.20;;;;;;5017779;28;20032;-66
2023/01/19 03:20:27;;;;;;;16.75;9.70;;;-5.60;91.90;;;;;;5015655;28;20109;-66
2023/01/19 03:23:08;;;;;;;18.05;10.40;;;-5.70;92.10;;;;;;4990768;28;20034;-66
2023/01/19 03:25:38;;;;;;;15.32;8.30;;;-5.50;90.40;;;;;;4992697;28;20053;-66
2023/01/19 03:28:04;;;;;;;19.40;9.57;;;-5.80;93.60;;;;;;4993325;28;20065;-68
2023/01/19 03:30:35;;;;;;;15.88;9.07;;;-5.60;93.80;;;;;;4992968;28;20152;-67
2023/01/19 03:33:24;;;;;;;18.58;10.13;;;-5.60;94.00;;;;;;4995315;28;20046;-68
2023/01/19 03:35:56;;;;;;;20.35;10.60;;;-5.60;94.20;;;;;;4998256;28;20037;-67
2023/01/19 03:38:25;;;;;;;17.13;9.65;;;-5.70;94.50;;;;;;5037971;28;20022;-67
2023/01/19 03:40:58;;;;;;;21.70;9.77;;;-5.90;94.60;;;;;;4993167;28;20434;-67
2023/01/19 03:43:25;;;;;;;23.88;10.80;;;-5.60;90.40;;;;;;4988782;28;20061;-67
2023/01/19 03:45:52;;;;;;;19.13;9.82;;;-5.30;90.60;;;;;;4992898;28;20160;-67
2023/01/19 03:48:20;;;;;;;15.88;8.80;;;-5.10;91.20;;;;;;4992389;28;20048;-66
2023/01/19 03:50:45;;;;;;;15.80;9.63;;;-4.80;91.50;;;;;;4992981;28;20046;-67
2023/01/19 03:53:13;;;;;;;16.45;9.88;;;-4.50;93.60;;;;;;4999160;28;20030;-67
2023/01/19 03:55:43;;;;;;;14.63;8.30;;;-4.20;96.90;;;;;;5004719;28;20072;-67
2023/01/19 03:58:09;;;;;;;16.13;8.10;;;-4.20;98.00;;;;;;5000626;28;20407;-66
2023/01/19 04:00:35;;;;;;;13.88;7.68;;;-4.20;98.00;;;;;;4996190;28;20022;-67
2023/01/19 04:03:01;;;;;;;14.23;7.80;;;-4.10;98.00;;;;;;5007981;28;20069;-67
2023/01/19 04:05:28;;;;;;;15.95;7.03;;;-4.10;98.00;;;;;;5016313;28;20446;-66
2023/01/19 04:07:54;;;;;;;50.13;23.85;;;-3.90;98.00;;;;;;5012450;28;20026;-66
2023/01/19 04:10:20;;;;;;;15.25;7.90;;;-4.00;98.00;;;;;;4998943;28;20115;-67
2023/01/19 04:12:45;;;;;;;50.38;23.42;;;-4.20;98.00;;;;;;4987497;28;20323;-64
2023/01/19 04:15:11;;;;;;;16.80;9.52;;;-4.40;98.00;;;;;;5009673;28;20026;-64
2023/01/19 04:17:38;;;;;;;21.52;10.93;;;-4.80;98.00;;;;;;5025293;28;20084;-64
2023/01/19 04:20:05;;;;;;;19.33;10.15;;;-5.00;98.00;;;;;;5016872;28;20076;-64
2023/01/19 04:22:34;;;;;;;14.05;7.97;;;-5.10;98.00;;;;;;5012175;28;20041;-66
2023/01/19 04:24:59;;;;;;;18.35;9.43;;;-5.20;98.00;;;;;;5015188;28;20026;-65
2023/01/19 04:27:25;;;;;;;21.58;8.70;;;-5.30;98.00;;;;;;5008149;28;20026;-66
2023/01/19 04:29:51;;;;;;;14.43;7.90;;;-5.40;97.30;;;;;;5016506;28;20068;-66
2023/01/19 04:32:16;;;;;;;15.55;8.32;;;-5.20;94.20;;;;;;5011112;28;20061;-65
2023/01/19 04:34:42;;;;;;;14.65;8.02;;;-4.90;94.70;;;;;;5008703;28;20088;-65
2023/01/19 04:37:08;;;;;;;16.60;7.97;;;-4.60;94.60;;;;;;5015111;28;20029;-66
2023/01/19 04:39:34;;;;;;;27.60;16.05;;;-4.50;97.60;;;;;;5015673;28;20030;-66
2023/01/19 04:42:00;;;;;;;15.70;9.00;;;-4.60;98.00;;;;;;5009728;28;20037;-65
2023/01/19 04:44:27;;;;;;;16.92;9.77;;;-4.90;98.00;;;;;;5002035;28;20049;-64
2023/01/19 04:46:53;;;;;;;12.60;7.30;;;-5.00;98.00;;;;;;5011567;28;20330;-65
2023/01/19 04:49:19;;;;;;;20.05;9.98;;;-4.80;95.70;;;;;;5011734;28;20034;-65
2023/01/19 04:51:44;;;;;;;15.45;8.02;;;-4.50;97.50;;;;;;5012256;28;20367;-66
2023/01/19 04:54:10;;;;;;;16.33;9.27;;;-4.60;98.00;;;;;;5013086;28;20041;-66
2023/01/19 04:56:36;;;;;;;14.82;8.38;;;-4.60;98.00;;;;;;5013663;28;20037;-66
2023/01/19 04:59:01;;;;;;;14.10;7.47;;;-4.50;98.00;;;;;;5014317;28;20041;-66
2023/01/19 05:01:27;;;;;;;14.18;7.93;;;-4.50;98.00;;;;;;5015033;28;20045;-66
2023/01/19 05:03:52;;;;;;;13.85;6.75;;;-4.60;98.00;;;;;;4998543;28;20045;-66
2023/01/19 05:06:18;;;;;;;16.05;9.15;;;-4.60;98.00;;;;;;5013959;28;20037;-66
2023/01/19 05:08:44;;;;;;;15.23;7.85;;;-4.60;97.70;;;;;;5015865;28;20049;-66
2023/01/19 05:11:09;;;;;;;13.40;7.50;;;-4.60;98.00;;;;;;5011287;28;20046;-66
2023/01/19 05:13:35;;;;;;;12.23;6.75;;;-4.70;98.00;;;;;;5010969;28;20156;-66
2023/01/19 05:16:01;;;;;;;12.80;6.85;;;-4.80;98.00;;;;;;5002143;28;20028;-66
2023/01/19 05:18:27;;;;;;;13.80;6.90;;;-4.80;96.90;;;;;;5015737;28;20022;-66
2023/01/19 05:20:52;;;;;;;14.07;7.15;;;-4.80;97.50;;;;;;4995711;28;20076;-66
2023/01/19 05:23:18;;;;;;;13.98;6.05;;;-4.70;97.10;;;;;;5008166;28;20108;-66
2023/01/19 05:25:44;;;;;;;11.55;5.53;;;-4.70;96.60;;;;;;5024352;28;20108;-66
2023/01/19 05:28:10;;;;;;;12.40;6.35;;;-4.50;96.70;;;;;;5014015;28;20422;-66
2023/01/19 05:30:36;;;;;;;15.70;6.32;;;-4.30;98.00;;;;;;5015844;28;20029;-66
2023/01/19 05:33:02;;;;;;;12.40;5.85;;;-4.30;98.00;;;;;;5013404;28;20072;-66
2023/01/19 05:35:27;;;;;;;9.77;5.40;;;-4.40;98.00;;;;;;5010995;28;20105;-66
2023/01/19 05:37:53;;;;;;;12.00;5.43;;;-4.40;98.00;;;;;;5009917;28;20477;-66
2023/01/19 05:40:19;;;;;;;13.35;7.00;;;-4.40;98.00;;;;;;5012910;28;20426;-66
2023/01/19 05:42:47;;;;;;;11.30;6.57;;;-4.60;98.00;;;;;;5007782;28;20033;-66
2023/01/19 05:45:12;;;;;;;14.93;5.88;;;-4.80;98.00;;;;;;5013298;28;20025;-66
2023/01/19 05:47:38;;;;;;;10.18;6.50;;;-4.90;98.00;;;;;;5015140;28;20053;-66
2023/01/19 05:50:04;;;;;;;13.20;6.70;;;-4.90;98.00;;;;;;5013892;28;20049;-66
2023/01/19 05:52:30;;;;;;;12.18;6.50;;;-4.90;98.00;;;;;;5013867;28;20381;-65
2023/01/19 05:54:55;;;;;;;13.23;6.40;;;-5.10;98.00;;;;;;4996403;28;20038;-65
2023/01/19 05:57:22;;;;;;;11.82;6.40;;;-5.20;98.00;;;;;;5015165;28;20024;-65
2023/01/19 05:59:47;;;;;;;10.48;5.95;;;-5.50;98.00;;;;;;5007656;28;20030;-65
2023/01/19 06:02:13;;;;;;;12.65;6.93;;;-5.60;98.00;;;;;;5013839;28;20041;-65
2023/01/19 06:04:38;;;;;;;14.02;6.18;;;-5.80;98.00;;;;;;5013649;28;20112;-66
2023/01/19 06:07:05;;;;;;;12.52;6.22;;;-5.90;97.20;;;;;;5013083;28;20076;-65
2023/01/19 06:09:32;;;;;;;13.73;6.72;;;-5.90;94.90;;;;;;4995742;28;20077;-65
2023/01/19 06:11:58;;;;;;;9.40;5.78;;;-5.80;95.50;;;;;;5010382;28;20375;-65
2023/01/19 06:14:24;;;;;;;11.27;6.05;;;-5.90;95.20;;;;;;5011507;28;20033;-64
2023/01/19 06:16:50;;;;;;;11.32;5.53;;;-6.00;96.00;;;;;;5012682;28;20034;-64
2023/01/19 06:19:15;;;;;;;11.52;5.75;;;-6.10;95.30;;;;;;5014459;28;20390;-64
2023/01/19 06:21:41;;;;;;;9.60;5.70;;;-6.00;94.20;;;;;;5011097;28;20034;-65
2023/01/19 06:24:08;;;;;;;10.43;5.40;;;-6.10;94.50;;;;;;5014841;28;20121;-67
2023/01/19 06:26:34;;;;;;;12.45;5.88;;;-6.10;93.50;;;;;;5014331;28;20411;-67
2023/01/19 06:28:59;;;;;;;13.75;7.97;;;-6.00;93.70;;;;;;5013840;28;20037;-66
2023/01/19 06:31:25;;;;;;;16.45;10.85;;;-6.10;95.20;;;;;;5013329;28;20034;-65
2023/01/19 06:33:50;;;;;;;13.95;6.65;;;-6.20;95.30;;;;;;4996181;28;20105;-65
2023/01/19 06:36:16;;;;;;;11.68;6.43;;;-6.40;95.80;;;;;;5009433;28;20030;-65
2023/01/19 06:38:41;;;;;;;15.63;8.25;;;-6.40;95.40;;;;;;5013956;28;20088;-65
2023/01/19 06:41:10;;;;;;;16.45;8.18;;;-6.60;94.40;;;;;;5012951;28;20093;-65
2023/01/19 06:43:35;;;;;;;14.93;8.65;;;-6.60;93.20;;;;;;5009823;28;20034;-65
2023/01/19 06:46:02;;;;;;;16.70;8.75;;;-6.50;92.70;;;;;;5011675;28;20523;-66
2023/01/19 06:48:27;;;;;;;18.58;10.32;;;-6.50;93.20;;;;;;5010467;28;20034;-65
2023/01/19 06:50:53;;;;;;;20.65;9.77;;;-6.60;93.00;;;;;;5016454;28;20104;-65
2023/01/19 06:53:21;;;;;;;26.63;14.48;;;-6.50;93.40;;;;;;5016989;28;20022;-65
2023/01/19 06:55:46;;;;;;;14.88;9.13;;;-6.70;94.60;;;;;;5015338;28;20083;-65
2023/01/19 06:58:12;;;;;;;25.02;13.02;;;-6.70;93.70;;;;;;5017966;28;20410;-65
2023/01/19 07:00:38;;;;;;;18.23;10.25;;;-6.70;93.20;;;;;;5016401;28;20065;-65
2023/01/19 07:03:07;;;;;;;27.80;14.65;;;-6.70;93.40;;;;;;5016316;28;20113;-65
2023/01/19 07:05:34;;;;;;;25.90;16.15;;;-6.60;92.40;;;;;;4995911;28;20446;-65
2023/01/19 07:08:00;;;;;;;23.33;13.98;;;-6.60;93.40;;;;;;5015401;28;20041;-65
2023/01/19 07:10:26;;;;;;;17.52;10.82;;;-6.50;93.70;;;;;;5016974;28;20050;-65
2023/01/19 07:12:52;;;;;;;11.63;7.18;;;-6.40;92.80;;;;;;5012494;28;20088;-65
2023/01/19 07:15:20;;;;;;;21.60;14.00;;;-6.40;93.20;;;;;;5005077;28;20068;-65
2023/01/19 07:17:46;;;;;;;53.67;32.20;;;-6.40;95.20;;;;;;5018108;28;20022;-65
2023/01/19 07:20:13;;;;;;;27.52;17.80;;;-6.60;95.30;;;;;;5017755;28;20036;-65
2023/01/19 07:22:42;;;;;;;18.52;10.10;;;-6.60;95.60;;;;;;5017401;28;20038;-65
2023/01/19 07:25:08;;;;;;;18.88;10.13;;;-6.50;95.50;;;;;;5017586;28;20033;-65
2023/01/19 07:27:34;;;;;;;16.50;9.23;;;-6.40;94.50;;;;;;5018624;28;20423;-65
2023/01/19 07:30:00;;;;;;;35.00;19.00;;;-6.30;94.80;;;;;;5017641;28;20029;-65
2023/01/19 07:32:26;;;;;;;19.15;11.13;;;-6.20;95.80;;;;;;5017782;28;20021;-65
2023/01/19 07:34:52;;;;;;;12.45;8.48;;;-6.20;96.50;;;;;;5017649;28;20026;-64
2023/01/19 07:37:17;;;;;;;13.75;8.20;;;-6.30;96.80;;;;;;5020794;28;20095;-65
2023/01/19 07:39:43;;;;;;;18.60;11.32;;;-6.40;97.00;;;;;;5019637;28;20029;-65
2023/01/19 07:42:12;;;;;;;30.70;16.05;;;-6.40;96.60;;;;;;5018138;28;20323;-64
2023/01/19 07:44:37;;;;;;;23.38;11.85;;;-6.30;96.70;;;;;;5016505;28;20029;-64
2023/01/19 07:47:06;;;;;;;28.38;17.85;;;-6.20;96.70;;;;;;5016742;28;20467;-65
2023/01/19 07:49:31;;;;;;;259.02;120.97;;;-5.90;97.50;;;;;;5018213;28;20049;-65
2023/01/19 07:51:57;;;;;;;42.42;22.35;;;-5.80;98.00;;;;;;5013625;28;20399;-65
2023/01/19 07:54:22;;;;;;;75.45;28.85;;;-5.80;98.00;;;;;;5018016;28;20026;-65
2023/01/19 07:56:48;;;;;;;176.43;63.22;;;-5.60;98.00;;;;;;5017001;28;20058;-65
2023/01/19 07:59:13;;;;;;;400.00;139.15;;;-5.60;98.00;;;;;;5016268;28;20045;-65
2023/01/19 08:01:39;;;;;;;1014.08;429.73;;;-5.70;98.00;;;;;;5017213;28;20030;-65
2023/01/19 08:04:05;;;;;;;102.28;39.35;;;-5.80;98.00;;;;;;5015871;28;20026;-65
2023/01/19 08:06:35;;;;;;;21.60;11.20;;;-5.70;98.00;;;;;;5016681;28;20108;-65
2023/01/19 08:09:04;;;;;;;12.63;8.18;;;-5.40;98.00;;;;;;4999700;28;20034;-65
2023/01/19 08:11:30;;;;;;;16.45;8.80;;;-5.40;98.00;;;;;;5015774;28;20125;-65
2023/01/19 08:13:55;;;;;;;7.18;4.80;;;-5.20;98.00;;;;;;5015676;28;20171;-65
2023/01/19 08:16:21;;;;;;;13.15;7.55;;;-5.10;98.00;;;;;;5016804;28;20084;-65
2023/01/19 08:18:46;;;;;;;8.82;4.78;;;-4.90;98.00;;;;;;5016204;28;20418;-65
2023/01/19 08:21:12;;;;;;;11.38;7.20;;;-4.60;98.00;;;;;;4999115;28;20026;-64
2023/01/19 08:23:38;;;;;;;7.88;4.03;;;-4.50;98.00;;;;;;5017241;28;20037;-65
2023/01/19 08:26:18;;;;;;;17.38;9.35;;;-4.30;98.00;;;;;;5016528;28;20033;-65
2023/01/19 08:28:43;;;;;;;7.72;3.55;;;-3.90;98.00;;;;;;5017576;28;20017;-64
2023/01/19 08:31:09;;;;;;;9.45;4.65;;;-3.70;98.00;;;;;;5014368;28;20030;-65
2023/01/19 08:33:35;;;;;;;8.70;4.63;;;-3.50;98.00;;;;;;5033215;28;20033;-65
2023/01/19 08:36:00;;;;;;;9.05;5.78;;;-3.30;98.00;;;;;;5033229;28;20018;-65
2023/01/19 08:38:26;;;;;;;9.95;7.60;;;-3.20;98.00;;;;;;5014529;28;20036;-65
2023/01/19 08:40:52;;;;;;;6.55;3.90;;;-3.20;98.00;;;;;;5024716;28;20022;-64
2023/01/19 08:43:17;;;;;;;8.93;3.70;;;-2.90;98.00;;;;;;4998691;28;20022;-65
2023/01/19 08:45:48;;;;;;;12.10;4.22;;;-2.00;98.00;;;;;;5015801;28;20061;-65
2023/01/19 08:48:16;;;;;;;6.93;3.60;;;-0.70;98.00;;;;;;5016189;28;20026;-65
2023/01/19 08:50:44;;;;;;;6.90;3.60;;;0.40;93.00;;;;;;5015897;28;20109;-65
2023/01/19 08:53:09;;;;;;;11.77;5.70;;;1.20;89.70;;;;;;5020165;28;20053;-65
2023/01/19 08:55:36;;;;;;;10.98;6.75;;;2.40;87.70;;;;;;5016974;28;20074;-65
2023/01/19 08:58:03;;;;;;;5.63;2.53;;;2.90;83.80;;;;;;5016773;28;20029;-65
2023/01/19 09:00:33;;;;;;;16.50;14.02;;;2.90;81.80;;;;;;5015502;28;20083;-65
2023/01/19 09:03:01;;;;;;;147.68;91.63;;;3.50;80.60;;;;;;5015029;28;20124;-65
2023/01/19 09:05:27;;;;;;;12.82;7.68;;;3.80;79.50;;;;;;5014247;28;20022;-64
2023/01/19 09:07:53;;;;;;;15.82;7.30;;;4.20;77.70;;;;;;5013660;28;20374;-64
2023/01/19 09:10:21;;;;;;;15.77;7.43;;;5.00;77.00;;;;;;5016410;28;20143;-64
2023/01/19 09:12:47;;;;;;;8.80;4.50;;;5.40;75.50;;;;;;5015672;28;20029;-64
2023/01/19 09:15:13;;;;;;;7.68;3.90;;;5.50;75.40;;;;;;5016737;28;20029;-64
2023/01/19 09:17:42;;;;;;;5.20;3.15;;;4.90;75.30;;;;;;5014203;28;20303;-67
2023/01/19 09:20:08;;;;;;;6.28;2.50;;;4.90;76.20;;;;;;4997095;28;20026;-67
2023/01/19 09:22:34;;;;;;;7.93;3.60;;;5.00;75.10;;;;;;4996276;28;20035;-66
2023/01/19 09:24:59;;;;;;;5.00;2.00;;;5.30;75.80;;;;;;5016289;28;20030;-66
2023/01/19 09:27:25;;;;;;;5.28;2.72;;;5.50;73.80;;;;;;5015791;28;20030;-66
2023/01/19 09:29:53;;;;;;;5.28;2.65;;;5.80;76.00;;;;;;5015572;28;20080;-66
2023/01/19 09:32:20;;;;;;;5.65;2.75;;;6.70;74.00;;;;;;5015333;28;20033;-66
2023/01/19 09:34:46;;;;;;;3.78;1.75;;;6.60;74.20;;;;;;5014739;28;20030;-66
2023/01/19 09:37:12;;;;;;;5.45;2.67;;;5.50;71.90;;;;;;5015229;28;20434;-66
2023/01/19 09:39:37;;;;;;;5.10;2.85;;;4.80;76.40;;;;;;5015382;28;20109;-66
2023/01/19 09:42:22;;;;;;;9.23;5.20;;;3.90;79.10;;;;;;4997762;28;20394;-65
2023/01/19 09:44:51;;;;;;;29.05;18.92;;;3.50;80.50;;;;;;5015304;28;20034;-66
2023/01/19 09:47:23;;;;;;;7.97;4.25;;;3.10;82.20;;;;;;5016251;28;20030;-66
2023/01/19 09:49:57;;;;;;;5.95;3.58;;;2.70;82.50;;;;;;5014207;28;20521;-65
2023/01/19 09:52:22;;;;;;;6.82;3.40;;;2.30;82.70;;;;;;5014918;28;20053;-65
2023/01/19 09:54:56;;;;;;;6.40;3.13;;;2.20;83.00;;;;;;5014440;28;20034;-66
2023/01/19 09:57:26;;;;;;;5.10;2.80;;;2.40;80.70;;;;;;5013416;28;20029;-66
2023/01/19 09:59:56;;;;;;;6.00;2.97;;;2.00;82.60;;;;;;5015187;28;20112;-65
2023/01/19 10:02:46;;;;;;;7.95;4.43;;;1.50;85.10;;;;;;5016232;28;20088;-65
2023/01/19 10:05:35;;;;;;;5.80;3.00;;;1.30;87.90;;;;;;5019254;28;20330;-65
2023/01/19 10:08:34;;;;;;;6.30;3.10;;;2.10;84.90;;;;;;5034924;28;20025;-65
2023/01/19 10:11:00;;;;;;;6.63;3.53;;;2.70;86.40;;;;;;4996960;28;20150;-66
2023/01/19 10:13:47;;;;;;;13.63;5.40;;;3.00;83.90;;;;;;5014861;28;20034;-65
2023/01/19 10:16:32;;;;;;;9.98;6.07;;;3.00;85.40;;;;;;5015968;28;20041;-65
2023/01/19 10:19:18;;;;;;;8.05;3.55;;;3.20;82.20;;;;;;5015227;28;20018;-66
2023/01/19 10:21:45;;;;;;;5.00;2.67;;;3.20;82.70;;;;;;4989588;28;20049;-65
2023/01/19 10:24:31;;;;;;;7.80;2.90;;;2.70;81.60;;;;;;5015383;28;20044;-65
2023/01/19 10:26:57;;;;;;;5.95;2.80;;;2.40;81.30;;;;;;5017730;28;20065;-65
2023/01/19 10:29:23;;;;;;;5.00;2.60;;;2.10;82.30;;;;;;5018805;28;20525;-66
2023/01/19 10:31:51;;;;;;;6.60;3.20;;;2.20;84.20;;;;;;5018221;28;20037;-65
2023/01/19 10:34:18;;;;;;;8.70;3.80;;;2.30;82.90;;;;;;5000029;28;20022;-66
2023/01/19 10:36:47;;;;;;;9.30;4.63;;;2.40;81.70;;;;;;4981567;28;20320;-65
2023/01/19 10:39:15;;;;;;;8.38;4.75;;;2.50;81.50;;;;;;5000920;28;20103;-65
2023/01/19 10:41:41;;;;;;;11.30;6.20;;;2.80;81.40;;;;;;5017862;28;20029;-66
2023/01/19 10:44:09;;;;;;;8.40;5.07;;;2.80;81.30;;;;;;5019549;28;20029;-66
2023/01/19 10:46:43;;;;;;;9.85;6.03;;;2.90;80.80;;;;;;5016298;28;20018;-65
2023/01/19 10:49:37;;;;;;;13.23;6.80;;;3.20;80.50;;;;;;5019369;28;20026;-65
2023/01/19 10:52:18;;;;;;;12.77;7.37;;;3.20;80.10;;;;;;4998362;28;20095;-65
2023/01/19 10:54:44;;;;;;;15.52;8.73;;;3.20;80.40;;;;;;5001264;28;20022;-66
2023/01/19 10:57:12;;;;;;;20.75;9.45;;;3.10;80.90;;;;;;5012620;28;20030;-65
2023/01/19 10:59:44;;;;;;;13.00;7.30;;;2.90;81.40;;;;;;5017393;28;20046;-65
2023/01/19 11:02:27;;;;;;;20.30;9.52;;;2.90;80.90;;;;;;5019290;28;20037;-65
2023/01/19 11:05:20;;;;;;;12.53;5.90;;;2.50;81.90;;;;;;5016964;28;20018;-65
2023/01/19 11:07:49;;;;;;;11.95;7.05;;;2.70;82.60;;;;;;5016911;28;20309;-66
2023/01/19 11:10:15;;;;;;;16.13;9.23;;;2.70;81.80;;;;;;5017818;28;20057;-66
2023/01/19 11:13:00;;;;;;;14.40;7.55;;;2.50;82.90;;;;;;5016170;28;20040;-66
2023/01/19 11:15:32;;;;;;;15.40;7.50;;;2.30;81.90;;;;;;5018915;28;20311;-66
2023/01/19 11:17:58;;;;;;;12.93;7.32;;;2.10;84.00;;;;;;5018031;28;20027;-65
2023/01/19 11:20:49;;;;;;;13.32;6.68;;;1.90;85.00;;;;;;4999389;28;20022;-65
2023/01/19 11:23:31;;;;;;;11.02;6.03;;;1.90;84.00;;;;;;5001451;28;20411;-65
2023/01/19 11:26:00;;;;;;;25.48;12.82;;;2.00;83.80;;;;;;5018824;28;20029;-66
2023/01/19 11:28:30;;;;;;;15.07;9.35;;;2.20;85.70;;;;;;5017629;28;20084;-65
2023/01/19 11:30:57;;;;;;;15.60;8.00;;;2.10;82.90;;;;;;5018599;28;20054;-65
2023/01/19 11:33:25;;;;;;;20.85;11.27;;;1.90;84.70;;;;;;5017424;28;20033;-65
2023/01/19 11:36:02;;;;;;;29.48;12.88;;;2.00;85.80;;;;;;5016267;28;20025;-65
2023/01/19 11:38:28;;;;;;;35.15;14.00;;;1.90;84.70;;;;;;5016760;28;20034;-65
2023/01/19 11:40:58;;;;;;;63.42;20.38;;;1.90;85.40;;;;;;5017525;28;20034;-65
2023/01/19 11:43:28;;;;;;;19.15;8.07;;;2.10;84.80;;;;;;5017620;28;20040;-65
2023/01/19 11:45:55;;;;;;;13.77;5.38;;;1.90;84.40;;;;;;5018260;28;20029;-66
2023/01/19 11:48:32;;;;;;;9.93;4.68;;;1.80;84.70;;;;;;5017158;28;20030;-65
2023/01/19 11:51:01;;;;;;;8.13;3.40;;;1.40;84.60;;;;;;4999805;28;20029;-65
2023/01/19 11:53:32;;;;;;;35.90;15.60;;;0.90;86.10;;;;;;5015941;28;20049;-65
2023/01/19 11:56:12;;;;;;;14.15;7.45;;;1.10;87.60;;;;;;5018082;28;20014;-65
2023/01/19 11:58:45;;;;;;;24.13;13.68;;;1.20;86.90;;;;;;5016634;28;20022;-65
2023/01/19 12:01:33;;;;;;;12.98;6.68;;;1.30;87.60;;;;;;5018038;28;20044;-65
2023/01/19 12:04:10;;;;;;;7.97;4.70;;;1.30;86.70;;;;;;5017069;28;20030;-64
2023/01/19 12:06:43;;;;;;;16.33;6.78;;;1.30;86.70;;;;;;5016666;28;20322;-64
2023/01/19 12:09:09;;;;;;;22.45;12.07;;;1.30;87.30;;;;;;5015870;28;20045;-64
2023/01/19 12:11:47;;;;;;;10.43;5.95;;;1.40;87.80;;;;;;5017564;28;20042;-67
2023/01/19 12:14:19;;;;;;;11.32;5.82;;;1.60;88.30;;;;;;5016800;28;20026;-66
2023/01/19 12:16:45;;;;;;;13.38;7.28;;;1.70;87.60;;;;;;5016136;28;20292;-67
2023/01/19 12:19:18;;;;;;;10.77;6.85;;;1.70;88.40;;;;;;5017660;28;20026;-66
2023/01/19 12:21:48;;;;;;;11.10;6.00;;;1.80;88.80;;;;;;5015348;28;20113;-65
2023/01/19 12:24:28;;;;;;;12.95;5.65;;;1.80;88.00;;;;;;5017709;28;20292;-66
2023/01/19 12:27:00;;;;;;;10.23;5.68;;;1.80;88.40;;;;;;5016545;28;20075;-65
2023/01/19 12:29:32;;;;;;;8.85;5.80;;;1.70;88.30;;;;;;5017525;28;20030;-65
2023/01/19 12:32:16;;;;;;;13.25;6.25;;;1.60;88.10;;;;;;5014707;28;20025;-65
2023/01/19 12:34:46;;;;;;;16.55;6.70;;;1.30;88.80;;;;;;5016720;28;20022;-65
2023/01/19 12:37:29;;;;;;;15.50;8.50;;;1.20;89.30;;;;;;5015177;28;20026;-65
2023/01/19 12:39:58;;;;;;;11.05;6.60;;;1.00;90.00;;;;;;5017348;28;20470;-65
2023/01/19 12:42:25;;;;;;;13.75;6.93;;;0.80;90.00;;;;;;5016428;28;20033;-65
2023/01/19 12:45:03;;;;;;;12.32;6.75;;;0.70;90.20;;;;;;5017113;28;20026;-65
2023/01/19 12:47:29;;;;;;;11.32;6.97;;;0.70;91.70;;;;;;5014939;28;20065;-65
2023/01/19 12:50:04;;;;;;;15.15;7.90;;;0.80;91.20;;;;;;5017033;28;20030;-65
2023/01/19 12:52:46;;;;;;;11.13;7.07;;;0.70;90.50;;;;;;5014970;28;20034;-65
2023/01/19 12:55:18;;;;;;;15.77;7.25;;;0.70;90.60;;;;;;5016971;28;20473;-65
2023/01/19 12:58:04;;;;;;;10.30;6.20;;;0.70;91.10;;;;;;5015770;28;20033;-65